Olot, Spain
Current Conditions -  °F | °C
As of 6:30 AM on Tuesday 27 Jan 2015 (Local Time) from LEGE Reporting Station
Few Clouds Few Clouds  
Wind Chill: 34°   Ceiling: Unl
Heat Index: 34°   Visibility: 6mi
Dew Point: 32°   Wind: 0mph
Humidity: 93%   Direction: NA
Pressure: 30.18"   Gusts: NA
Location:  42.18°N, 2.49°E
Report Text: LEGE 270530Z 00000KT 9999 FEW025 01/00 Q1022
Loading
Personal Weather Stations






























Interactive Weather Map New forecast layout! Learn more

10-Day Weather Forecast

Advertisements
Track Severe Weather on mobile